createdAt,value
2023-05-14T00:00:59.168Z,86.10
2023-05-14T00:01:59.215Z,86.04
2023-05-14T00:02:59.366Z,85.82
2023-05-14T00:03:59.287Z,85.79
2023-05-14T00:04:59.128Z,85.76
2023-05-14T00:05:59.113Z,85.73
2023-05-14T00:06:59.082Z,85.73
2023-05-14T00:07:59.092Z,85.76
2023-05-14T00:08:59.059Z,85.92
2023-05-14T00:09:59.049Z,85.91
2023-05-14T00:10:59.052Z,85.50
2023-05-14T00:11:59.021Z,85.33
2023-05-14T00:12:59.021Z,85.46
2023-05-14T00:13:59.002Z,85.46
2023-05-14T00:14:58.987Z,85.46
2023-05-14T00:15:58.980Z,85.43
2023-05-14T00:16:58.962Z,85.45
2023-05-14T00:17:58.985Z,85.37
2023-05-14T00:18:59.021Z,85.33
2023-05-14T00:19:58.933Z,85.44
2023-05-14T00:20:58.930Z,85.34
2023-05-14T00:21:58.952Z,85.33
2023-05-14T00:22:58.898Z,85.40
2023-05-14T00:23:58.870Z,85.56
2023-05-14T00:24:58.864Z,85.58
2023-05-14T00:25:58.842Z,85.49
2023-05-14T00:26:58.825Z,85.47
2023-05-14T00:27:58.857Z,85.46
2023-05-14T00:28:58.820Z,85.11
2023-05-14T00:29:58.804Z,85.00
2023-05-14T00:30:58.781Z,85.11
2023-05-14T00:31:58.750Z,85.18
2023-05-14T00:32:58.805Z,84.97
2023-05-14T00:33:58.745Z,85.17
2023-05-14T00:34:58.716Z,85.04
2023-05-14T00:35:58.702Z,85.08
2023-05-14T00:36:58.687Z,84.94
2023-05-14T00:37:58.688Z,84.83
2023-05-14T00:38:58.695Z,84.97
2023-05-14T00:39:58.701Z,85.02
2023-05-14T00:40:58.644Z,85.06
2023-05-14T00:41:58.641Z,85.12
2023-05-14T00:42:58.628Z,85.04
2023-05-14T00:43:58.641Z,85.07
2023-05-14T00:44:58.621Z,85.07
2023-05-14T00:45:58.584Z,85.05
2023-05-14T00:46:58.679Z,85.09
2023-05-14T00:47:58.582Z,85.21
2023-05-14T00:48:58.540Z,85.08
2023-05-14T00:49:58.538Z,85.06
2023-05-14T00:50:58.529Z,85.21
2023-05-14T00:51:58.510Z,85.16
2023-05-14T00:52:58.500Z,85.27
2023-05-14T00:53:58.565Z,85.13
2023-05-14T00:54:58.495Z,85.05
2023-05-14T00:55:58.497Z,85.11
2023-05-14T00:56:58.422Z,85.12
2023-05-14T00:57:58.504Z,85.23
2023-05-14T00:58:58.551Z,85.28
2023-05-14T00:59:58.397Z,85.13
2023-05-14T01:00:58.449Z,85.12
2023-05-14T01:01:58.388Z,85.05
2023-05-14T01:02:58.420Z,84.97
2023-05-14T01:03:58.452Z,84.78
2023-05-14T01:04:58.347Z,84.76
2023-05-14T01:05:58.341Z,84.74
2023-05-14T01:06:58.306Z,84.79
2023-05-14T01:07:58.297Z,84.87
2023-05-14T01:08:58.305Z,84.93
2023-05-14T01:09:58.287Z,84.73
2023-05-14T01:10:58.236Z,84.79
2023-05-14T01:11:58.260Z,84.73
2023-05-14T01:12:58.263Z,84.61
2023-05-14T01:13:58.243Z,84.60
2023-05-14T01:14:58.246Z,84.60
2023-05-14T01:15:58.226Z,84.68
2023-05-14T01:16:58.378Z,84.70
2023-05-14T01:17:58.221Z,84.52
2023-05-14T01:18:58.175Z,84.47
2023-05-14T01:19:58.153Z,84.46
2023-05-14T01:20:58.141Z,84.50
2023-05-14T01:21:58.105Z,84.41
2023-05-14T01:22:58.101Z,84.33
2023-05-14T01:23:58.138Z,84.23
2023-05-14T01:24:58.045Z,84.47
2023-05-14T01:25:58.068Z,84.50
2023-05-14T01:26:58.043Z,84.37
2023-05-14T01:27:58.055Z,84.14
2023-05-14T01:28:58.001Z,84.11
2023-05-14T01:29:57.992Z,84.13
2023-05-14T01:30:58.017Z,84.17
2023-05-14T01:31:57.989Z,84.25
2023-05-14T01:32:58.012Z,84.23
2023-05-14T01:33:57.951Z,84.36
2023-05-14T01:34:57.924Z,84.46
2023-05-14T01:35:57.915Z,84.41
2023-05-14T01:36:57.953Z,84.40
2023-05-14T01:37:57.915Z,84.33
2023-05-14T01:38:57.928Z,84.37
2023-05-14T01:39:57.862Z,84.32
2023-05-14T01:40:57.856Z,84.38
2023-05-14T01:41:57.833Z,84.19
2023-05-14T01:42:57.884Z,84.28
2023-05-14T01:43:57.809Z,84.25
2023-05-14T01:44:57.808Z,84.25
2023-05-14T01:45:57.846Z,84.21
2023-05-14T01:46:57.783Z,84.18
2023-05-14T01:47:57.792Z,84.20
2023-05-14T01:48:57.726Z,84.21
2023-05-14T01:49:57.748Z,84.13
2023-05-14T01:50:57.714Z,84.00
2023-05-14T01:51:57.711Z,84.10
2023-05-14T01:52:57.700Z,84.29
2023-05-14T01:53:57.682Z,84.32
2023-05-14T01:54:57.662Z,84.24
2023-05-14T01:55:57.642Z,84.15
2023-05-14T01:56:57.650Z,84.12
2023-05-14T01:57:57.639Z,84.25
2023-05-14T01:58:57.609Z,84.33
2023-05-14T01:59:57.612Z,84.32
2023-05-14T02:00:57.597Z,84.28
2023-05-14T02:01:57.626Z,84.19
2023-05-14T02:02:57.652Z,84.01
2023-05-14T02:03:57.604Z,83.98
2023-05-14T02:04:57.574Z,83.85
2023-05-14T02:05:57.520Z,83.80
2023-05-14T02:06:57.495Z,83.82
2023-05-14T02:07:57.514Z,83.71
2023-05-14T02:08:57.493Z,83.53
2023-05-14T02:09:57.467Z,83.44
2023-05-14T02:10:57.455Z,83.29
2023-05-14T02:11:57.419Z,83.31
2023-05-14T02:12:57.420Z,83.29
2023-05-14T02:13:57.390Z,83.12
2023-05-14T02:14:57.409Z,83.43
2023-05-14T02:15:57.409Z,83.30
2023-05-14T02:16:57.383Z,83.39
2023-05-14T02:17:57.390Z,83.42
2023-05-14T02:18:57.430Z,83.37
2023-05-14T02:19:57.333Z,83.42
2023-05-14T02:20:57.310Z,83.19
2023-05-14T02:21:57.307Z,83.23
2023-05-14T02:22:57.282Z,83.33
2023-05-14T02:23:57.294Z,83.29
2023-05-14T02:24:57.320Z,83.27
2023-05-14T02:25:57.247Z,83.30
2023-05-14T02:26:57.224Z,83.28
2023-05-14T02:27:57.218Z,83.18
2023-05-14T02:28:57.215Z,83.03
2023-05-14T02:29:57.190Z,83.16
2023-05-14T02:30:57.196Z,83.35
2023-05-14T02:31:57.459Z,83.18
2023-05-14T02:32:57.180Z,82.76
2023-05-14T02:33:57.147Z,82.69
2023-05-14T02:34:57.133Z,83.10
2023-05-14T02:35:57.107Z,83.18
2023-05-14T02:36:57.101Z,83.32
2023-05-14T02:37:57.093Z,83.43
2023-05-14T02:38:57.071Z,83.41
2023-05-14T02:39:57.072Z,83.46
2023-05-14T02:40:57.058Z,83.48
2023-05-14T02:41:57.042Z,83.36
2023-05-14T02:42:57.040Z,83.39
2023-05-14T02:43:57.006Z,83.42
2023-05-14T02:44:57.000Z,83.52
2023-05-14T02:45:56.977Z,83.48
2023-05-14T02:46:57.016Z,83.67
2023-05-14T02:47:56.997Z,83.70
2023-05-14T02:48:56.958Z,83.79
2023-05-14T02:49:56.935Z,83.81
2023-05-14T02:50:56.907Z,83.85
2023-05-14T02:51:56.910Z,83.84
2023-05-14T02:52:56.888Z,83.94
2023-05-14T02:53:56.902Z,83.94
2023-05-14T02:54:56.872Z,83.75
2023-05-14T02:55:56.857Z,83.69
2023-05-14T02:56:56.827Z,83.68
2023-05-14T02:57:56.878Z,83.62
2023-05-14T02:58:56.812Z,83.51
2023-05-14T02:59:56.805Z,83.50
2023-05-14T03:00:56.849Z,83.61
2023-05-14T03:01:56.788Z,83.67
2023-05-14T03:02:56.802Z,83.56
2023-05-14T03:03:56.752Z,83.69
2023-05-14T03:04:56.725Z,83.91
2023-05-14T03:05:56.711Z,83.88
2023-05-14T03:06:56.694Z,83.92
2023-05-14T03:07:56.680Z,83.90
2023-05-14T03:08:56.688Z,83.81
2023-05-14T03:09:56.667Z,83.72
2023-05-14T03:10:56.653Z,83.76
2023-05-14T03:11:56.631Z,83.66
2023-05-14T03:12:56.672Z,83.84
2023-05-14T03:13:56.616Z,83.86
2023-05-14T03:14:56.620Z,83.73
2023-05-14T03:15:56.601Z,83.79
2023-05-14T03:16:56.623Z,83.94
2023-05-14T03:17:56.582Z,84.03
2023-05-14T03:18:56.599Z,84.04
2023-05-14T03:19:56.532Z,83.95
2023-05-14T03:20:56.534Z,83.90
2023-05-14T03:21:56.521Z,83.99
2023-05-14T03:22:56.491Z,84.06
2023-05-14T03:23:56.471Z,84.08
2023-05-14T03:24:56.457Z,84.15
2023-05-14T03:25:56.437Z,84.08
2023-05-14T03:26:56.435Z,84.07
2023-05-14T03:27:56.427Z,84.08
2023-05-14T03:28:56.404Z,84.13
2023-05-14T03:29:56.386Z,84.15
2023-05-14T03:30:56.390Z,84.05
2023-05-14T03:31:56.378Z,84.13
2023-05-14T03:32:56.374Z,84.09
2023-05-14T03:33:56.324Z,84.01
2023-05-14T03:34:56.319Z,84.12
2023-05-14T03:35:56.315Z,84.14
2023-05-14T03:36:56.318Z,84.23
2023-05-14T03:37:56.274Z,84.28
2023-05-14T03:38:56.270Z,84.23
2023-05-14T03:39:56.248Z,84.12
2023-05-14T03:40:56.272Z,84.02
2023-05-14T03:41:56.246Z,84.06
2023-05-14T03:42:56.227Z,84.02
2023-05-14T03:43:56.196Z,83.99
2023-05-14T03:44:56.189Z,84.02
2023-05-14T03:45:56.173Z,84.11
2023-05-14T03:46:56.182Z,84.12
2023-05-14T03:47:56.260Z,84.20
2023-05-14T03:48:56.221Z,84.13
2023-05-14T03:49:56.126Z,84.10
2023-05-14T03:50:56.131Z,84.15
2023-05-14T03:51:56.114Z,84.08
2023-05-14T03:52:56.078Z,84.22
2023-05-14T03:53:56.080Z,84.25
2023-05-14T03:54:56.075Z,84.09
2023-05-14T03:55:56.058Z,84.02
2023-05-14T03:56:56.031Z,83.91
2023-05-14T03:57:56.020Z,83.80
2023-05-14T03:58:56.004Z,83.82
2023-05-14T03:59:56.015Z,83.93
2023-05-14T04:00:55.992Z,83.93
2023-05-14T04:01:55.981Z,83.91
2023-05-14T04:02:56.020Z,84.08
2023-05-14T04:03:56.036Z,84.05
2023-05-14T04:04:56.040Z,83.99
2023-05-14T04:05:55.938Z,83.98
2023-05-14T04:06:55.964Z,84.01
2023-05-14T04:07:55.891Z,83.96
2023-05-14T04:08:55.871Z,83.90
2023-05-14T04:09:55.859Z,83.87
2023-05-14T04:10:55.865Z,83.99
2023-05-14T04:11:55.842Z,84.01
2023-05-14T04:12:55.874Z,83.99
2023-05-14T04:13:55.819Z,83.94
2023-05-14T04:14:55.792Z,83.90
2023-05-14T04:15:55.814Z,83.79
2023-05-14T04:16:55.779Z,83.70
2023-05-14T04:17:55.798Z,83.81
2023-05-14T04:18:55.801Z,83.86
2023-05-14T04:19:55.733Z,83.79
2023-05-14T04:20:55.740Z,83.75
2023-05-14T04:21:55.714Z,83.51
2023-05-14T04:22:55.718Z,83.44
2023-05-14T04:23:55.718Z,83.45
2023-05-14T04:24:55.688Z,83.74
2023-05-14T04:25:55.687Z,83.80
2023-05-14T04:26:55.640Z,83.94
2023-05-14T04:27:55.628Z,83.99
2023-05-14T04:28:55.641Z,84.06
2023-05-14T04:29:55.594Z,83.94
2023-05-14T04:30:55.616Z,83.85
2023-05-14T04:31:55.696Z,83.77
2023-05-14T04:32:55.656Z,83.81
2023-05-14T04:33:55.568Z,83.81
2023-05-14T04:34:55.540Z,83.79
2023-05-14T04:35:55.522Z,83.76
2023-05-14T04:36:55.512Z,83.82
2023-05-14T04:37:55.499Z,83.98
2023-05-14T04:38:55.476Z,83.99
2023-05-14T04:39:55.487Z,83.94
2023-05-14T04:40:55.472Z,83.83
2023-05-14T04:41:55.456Z,83.90
2023-05-14T04:42:55.431Z,83.83
2023-05-14T04:43:55.427Z,83.83
2023-05-14T04:44:55.394Z,83.88
2023-05-14T04:45:55.436Z,83.91
2023-05-14T04:46:55.397Z,84.01
2023-05-14T04:47:55.435Z,83.88
2023-05-14T04:48:55.348Z,83.89
2023-05-14T04:49:55.336Z,83.94
2023-05-14T04:50:55.361Z,83.81
2023-05-14T04:51:55.326Z,83.66
2023-05-14T04:52:55.327Z,83.65
2023-05-14T04:53:55.345Z,83.65
2023-05-14T04:54:55.299Z,83.67
2023-05-14T04:55:55.263Z,83.74
2023-05-14T04:56:55.324Z,83.67
2023-05-14T04:57:55.224Z,83.70
2023-05-14T04:58:55.233Z,83.77
2023-05-14T04:59:55.239Z,83.73
2023-05-14T05:00:55.256Z,83.75
2023-05-14T05:01:55.192Z,83.69
2023-05-14T05:02:55.249Z,83.68
2023-05-14T05:03:55.227Z,83.83
2023-05-14T05:04:55.159Z,83.89
2023-05-14T05:05:55.131Z,83.77
2023-05-14T05:06:55.173Z,83.64
2023-05-14T05:07:55.091Z,83.74
2023-05-14T05:08:55.100Z,83.82
2023-05-14T05:09:55.072Z,83.82
2023-05-14T05:10:55.112Z,83.77
2023-05-14T05:11:55.075Z,83.91
2023-05-14T05:12:55.040Z,83.99
2023-05-14T05:13:55.023Z,83.94
2023-05-14T05:14:55.044Z,83.98
2023-05-14T05:15:55.079Z,83.87
2023-05-14T05:16:54.986Z,83.85
2023-05-14T05:17:55.007Z,83.83
2023-05-14T05:18:55.020Z,83.75
2023-05-14T05:19:54.946Z,83.76
2023-05-14T05:20:54.943Z,83.91
2023-05-14T05:21:54.919Z,83.92
2023-05-14T05:22:54.904Z,83.89
2023-05-14T05:23:54.894Z,84.04
2023-05-14T05:24:54.915Z,84.04
2023-05-14T05:25:54.864Z,84.01
2023-05-14T05:26:54.864Z,84.00
2023-05-14T05:27:54.851Z,84.02
2023-05-14T05:28:54.823Z,83.96
2023-05-14T05:29:54.828Z,83.92
2023-05-14T05:30:54.851Z,83.83
2023-05-14T05:31:54.886Z,83.88
2023-05-14T05:32:54.811Z,83.98
2023-05-14T05:33:54.751Z,83.99
2023-05-14T05:34:54.758Z,83.98
2023-05-14T05:35:54.757Z,84.03
2023-05-14T05:36:54.734Z,84.07
2023-05-14T05:37:54.715Z,83.87
2023-05-14T05:38:54.699Z,84.05
2023-05-14T05:39:54.678Z,84.17
2023-05-14T05:40:54.653Z,84.10
2023-05-14T05:41:54.641Z,84.14
2023-05-14T05:42:54.636Z,84.11
2023-05-14T05:43:54.636Z,84.11
2023-05-14T05:44:54.616Z,83.87
2023-05-14T05:45:54.588Z,83.86
2023-05-14T05:46:54.710Z,84.00
2023-05-14T05:47:54.581Z,84.14
2023-05-14T05:48:54.564Z,84.08
2023-05-14T05:49:54.523Z,84.03
2023-05-14T05:50:54.543Z,83.96
2023-05-14T05:51:54.492Z,84.12
2023-05-14T05:52:54.507Z,84.11
2023-05-14T05:53:54.511Z,84.13
2023-05-14T05:54:54.462Z,84.07
2023-05-14T05:55:54.467Z,84.22
2023-05-14T05:56:54.482Z,84.20
2023-05-14T05:57:54.449Z,84.18
2023-05-14T05:58:54.447Z,84.24
2023-05-14T05:59:54.434Z,84.12
2023-05-14T06:00:54.424Z,83.94
2023-05-14T06:01:54.434Z,83.95
2023-05-14T06:02:54.399Z,84.16
2023-05-14T06:03:54.387Z,84.13
2023-05-14T06:04:54.376Z,83.98
2023-05-14T06:05:54.416Z,84.06
2023-05-14T06:06:54.310Z,84.30
2023-05-14T06:07:54.319Z,84.36
2023-05-14T06:08:54.291Z,84.41
2023-05-14T06:09:54.288Z,84.34
2023-05-14T06:10:54.273Z,84.30
2023-05-14T06:11:54.248Z,84.22
2023-05-14T06:12:54.262Z,84.25
2023-05-14T06:13:54.227Z,84.08
2023-05-14T06:14:54.200Z,83.97
2023-05-14T06:15:54.165Z,84.04
2023-05-14T06:16:54.256Z,83.98
2023-05-14T06:17:54.244Z,83.94
2023-05-14T06:18:54.284Z,83.87
2023-05-14T06:19:54.125Z,83.77
2023-05-14T06:20:54.232Z,83.58
2023-05-14T06:21:54.119Z,83.72
2023-05-14T06:22:54.179Z,84.02
2023-05-14T06:23:54.075Z,84.03
2023-05-14T06:24:54.074Z,84.06
2023-05-14T06:25:54.062Z,84.01
2023-05-14T06:26:54.079Z,83.77
2023-05-14T06:27:54.049Z,83.67
2023-05-14T06:28:54.018Z,83.56
2023-05-14T06:29:54.034Z,83.47
2023-05-14T06:30:54.122Z,83.47
2023-05-14T06:31:54.087Z,83.42
2023-05-14T06:32:54.057Z,83.52
2023-05-14T06:33:54.042Z,83.52
2023-05-14T06:34:53.946Z,83.50
2023-05-14T06:35:53.944Z,83.53
2023-05-14T06:36:53.921Z,83.54
2023-05-14T06:37:53.929Z,83.45
2023-05-14T06:38:53.886Z,83.51
2023-05-14T06:39:54.735Z,83.51
2023-05-14T06:40:53.858Z,83.54
2023-05-14T06:41:53.850Z,83.53
2023-05-14T06:42:53.869Z,83.49
2023-05-14T06:43:53.832Z,83.26
2023-05-14T06:44:53.804Z,83.51
2023-05-14T06:45:53.804Z,83.63
2023-05-14T06:46:53.801Z,83.42
2023-05-14T06:47:53.886Z,83.38
2023-05-14T06:48:53.814Z,83.52
2023-05-14T06:49:53.756Z,83.42
2023-05-14T06:50:53.745Z,83.36
2023-05-14T06:51:53.701Z,83.42
2023-05-14T06:52:53.697Z,83.51
2023-05-14T06:53:53.753Z,83.51
2023-05-14T06:54:53.662Z,83.40
2023-05-14T06:55:53.670Z,83.40
2023-05-14T06:56:53.638Z,83.18
2023-05-14T06:57:53.638Z,83.18
2023-05-14T06:58:53.655Z,83.02
2023-05-14T06:59:53.622Z,82.95
2023-05-14T07:00:53.653Z,82.93
2023-05-14T07:01:53.626Z,82.79
2023-05-14T07:02:53.699Z,82.88
2023-05-14T07:03:53.606Z,82.87
2023-05-14T07:04:53.558Z,82.92
2023-05-14T07:05:53.524Z,82.95
2023-05-14T07:06:53.561Z,82.99
2023-05-14T07:07:53.516Z,82.72
2023-05-14T07:08:53.493Z,82.39
2023-05-14T07:09:53.489Z,82.66
2023-05-14T07:10:53.442Z,82.73
2023-05-14T07:11:53.434Z,82.85
2023-05-14T07:12:53.468Z,82.89
2023-05-14T07:13:53.440Z,82.98
2023-05-14T07:14:53.409Z,82.95
2023-05-14T07:15:53.463Z,82.91
2023-05-14T07:16:53.431Z,83.01
2023-05-14T07:17:53.444Z,82.94
2023-05-14T07:18:53.507Z,82.79
2023-05-14T07:19:53.347Z,82.71
2023-05-14T07:20:53.310Z,82.66
2023-05-14T07:21:53.305Z,82.65
2023-05-14T07:22:53.298Z,82.31
2023-05-14T07:23:53.288Z,82.49
2023-05-14T07:24:53.306Z,82.56
2023-05-14T07:25:53.315Z,82.71
2023-05-14T07:26:53.333Z,82.65
2023-05-14T07:27:53.230Z,82.80
2023-05-14T07:28:53.223Z,82.78
2023-05-14T07:29:53.246Z,82.87
2023-05-14T07:30:53.217Z,82.60
2023-05-14T07:31:53.249Z,82.48
2023-05-14T07:32:53.217Z,82.68
2023-05-14T07:33:53.174Z,82.44
2023-05-14T07:34:53.175Z,82.35
2023-05-14T07:35:53.194Z,82.44
2023-05-14T07:36:53.134Z,82.21
2023-05-14T07:37:53.098Z,82.23
2023-05-14T07:38:53.088Z,82.21
2023-05-14T07:39:53.072Z,82.09
2023-05-14T07:40:53.125Z,82.16
2023-05-14T07:41:53.076Z,81.92
2023-05-14T07:42:53.049Z,82.00
2023-05-14T07:43:53.032Z,82.01
2023-05-14T07:44:53.028Z,81.76
2023-05-14T07:45:53.003Z,81.80
2023-05-14T07:46:53.016Z,81.83
2023-05-14T07:47:53.091Z,81.70
2023-05-14T07:48:52.951Z,81.64
2023-05-14T07:49:52.939Z,81.35
2023-05-14T07:50:52.967Z,81.26
2023-05-14T07:51:52.926Z,81.33
2023-05-14T07:52:52.902Z,81.40
2023-05-14T07:53:52.899Z,81.21
2023-05-14T07:54:52.919Z,81.14
2023-05-14T07:55:52.868Z,81.05
2023-05-14T07:56:52.870Z,81.08
2023-05-14T07:57:52.844Z,81.10
2023-05-14T07:58:52.863Z,81.36
2023-05-14T07:59:52.823Z,81.50
2023-05-14T08:00:52.824Z,81.32
2023-05-14T08:01:52.913Z,81.12
2023-05-14T08:02:53.116Z,81.45
2023-05-14T08:03:52.863Z,81.45
2023-05-14T08:04:52.740Z,81.60
2023-05-14T08:05:52.798Z,81.69
2023-05-14T08:06:52.757Z,81.59
2023-05-14T08:07:52.722Z,81.48
2023-05-14T08:08:52.685Z,81.47
2023-05-14T08:09:52.683Z,81.47
2023-05-14T08:10:52.701Z,81.83
2023-05-14T08:11:52.686Z,81.61
2023-05-14T08:12:52.648Z,81.82
2023-05-14T08:13:52.642Z,81.57
2023-05-14T08:14:52.633Z,81.61
2023-05-14T08:15:52.607Z,81.62
2023-05-14T08:16:52.717Z,81.60
2023-05-14T08:17:52.660Z,81.46
2023-05-14T08:18:52.581Z,81.38
2023-05-14T08:19:52.553Z,81.50
2023-05-14T08:20:52.551Z,81.56
2023-05-14T08:21:52.527Z,81.61
2023-05-14T08:22:52.517Z,81.62
2023-05-14T08:23:52.494Z,81.65
2023-05-14T08:24:52.498Z,81.46
2023-05-14T08:25:52.498Z,81.63
2023-05-14T08:26:52.508Z,81.20
2023-05-14T08:27:52.468Z,81.04
2023-05-14T08:28:52.430Z,81.06
2023-05-14T08:29:52.498Z,81.25
2023-05-14T08:30:52.447Z,81.22
2023-05-14T08:31:52.414Z,81.09
2023-05-14T08:32:52.502Z,81.01
2023-05-14T08:33:52.393Z,81.13
2023-05-14T08:34:52.458Z,80.80
2023-05-14T08:35:52.359Z,80.67
2023-05-14T08:38:02.932Z,80.97
2023-05-14T08:38:52.330Z,80.87
2023-05-14T08:39:52.470Z,80.91
2023-05-14T08:40:52.296Z,80.94
2023-05-14T08:41:52.250Z,80.96
2023-05-14T08:42:52.269Z,81.01
2023-05-14T08:43:52.239Z,80.80
2023-05-14T08:44:52.240Z,80.72
2023-05-14T08:45:52.220Z,80.67
2023-05-14T08:46:52.200Z,80.77
2023-05-14T08:47:52.234Z,80.76
2023-05-14T08:48:52.214Z,80.85
2023-05-14T08:49:52.176Z,80.77
2023-05-14T08:50:52.137Z,80.93
2023-05-14T08:51:52.157Z,81.01
2023-05-14T08:52:52.142Z,80.70
2023-05-14T08:53:52.098Z,80.74
2023-05-14T08:54:52.123Z,80.69
2023-05-14T08:55:52.097Z,80.74
2023-05-14T08:56:52.094Z,80.87
2023-05-14T08:57:52.101Z,80.78
2023-05-14T08:58:52.027Z,80.69
2023-05-14T08:59:52.034Z,80.45
2023-05-14T09:00:52.004Z,80.53
2023-05-14T09:01:52.031Z,80.48
2023-05-14T09:02:52.029Z,80.56
2023-05-14T09:03:52.002Z,80.61
2023-05-14T09:04:51.996Z,80.75
2023-05-14T09:05:51.938Z,80.75
2023-05-14T09:06:51.939Z,80.69
2023-05-14T09:07:51.926Z,80.78
2023-05-14T09:08:51.901Z,80.89
2023-05-14T09:09:51.930Z,80.82
2023-05-14T09:10:51.885Z,80.76
2023-05-14T09:11:51.853Z,80.83
2023-05-14T09:12:51.853Z,80.98
2023-05-14T09:13:51.830Z,80.96
2023-05-14T09:14:51.811Z,81.09
2023-05-14T09:15:51.798Z,81.01
2023-05-14T09:16:51.878Z,80.96
2023-05-14T09:17:51.787Z,80.71
2023-05-14T09:18:51.798Z,80.54
2023-05-14T09:19:51.737Z,80.57
2023-05-14T09:20:51.755Z,80.49
2023-05-14T09:21:51.717Z,80.47
2023-05-14T09:22:51.717Z,80.29
2023-05-14T09:23:51.700Z,80.27
2023-05-14T09:24:51.669Z,80.10
2023-05-14T09:25:51.656Z,80.25
2023-05-14T09:26:51.642Z,80.16
2023-05-14T09:27:51.644Z,80.18
2023-05-14T09:28:51.642Z,80.19
2023-05-14T09:29:51.622Z,80.20
2023-05-14T09:30:51.598Z,80.23
2023-05-14T09:31:51.640Z,80.22
2023-05-14T09:32:51.587Z,80.20
2023-05-14T09:33:51.581Z,80.22
2023-05-14T09:34:51.546Z,80.06
2023-05-14T09:35:51.526Z,80.17
2023-05-14T09:36:51.526Z,80.26
2023-05-14T09:37:51.496Z,80.25
2023-05-14T09:38:51.485Z,80.34
2023-05-14T09:39:51.476Z,80.30
2023-05-14T09:40:51.487Z,80.33
2023-05-14T09:41:51.446Z,80.41
2023-05-14T09:42:51.447Z,80.35
2023-05-14T09:43:51.451Z,80.36
2023-05-14T09:44:51.438Z,80.33
2023-05-14T09:45:51.396Z,80.31
2023-05-14T09:46:51.410Z,80.30
2023-05-14T09:47:51.486Z,80.35
2023-05-14T09:48:51.337Z,80.22
2023-05-14T09:49:51.359Z,79.98
2023-05-14T09:50:51.334Z,79.99
2023-05-14T09:51:51.307Z,80.07
2023-05-14T09:52:51.301Z,79.96
2023-05-14T09:53:51.294Z,79.69
2023-05-14T09:54:51.276Z,79.56
2023-05-14T09:55:51.301Z,79.40
2023-05-14T09:56:51.248Z,79.49
2023-05-14T09:57:51.240Z,79.61
2023-05-14T09:58:51.221Z,79.69
2023-05-14T09:59:51.221Z,79.57
2023-05-14T10:00:51.204Z,79.66
2023-05-14T10:01:51.178Z,79.60
2023-05-14T10:02:51.230Z,79.57
2023-05-14T10:03:51.199Z,79.35
2023-05-14T10:04:51.247Z,79.46
2023-05-14T10:05:51.180Z,79.44
2023-05-14T10:06:51.114Z,79.26
2023-05-14T10:07:51.106Z,79.28
2023-05-14T10:08:51.077Z,79.15
2023-05-14T10:09:51.083Z,79.19
2023-05-14T10:10:51.061Z,79.14
2023-05-14T10:11:51.055Z,79.21
2023-05-14T10:12:51.041Z,79.02
2023-05-14T10:13:51.039Z,79.14
2023-05-14T10:14:51.008Z,79.15
2023-05-14T10:15:51.005Z,79.21
2023-05-14T10:16:51.048Z,79.11
2023-05-14T10:17:50.988Z,78.86
2023-05-14T10:18:50.982Z,78.96
2023-05-14T10:19:50.941Z,79.38
2023-05-14T10:20:50.945Z,80.14
2023-05-14T10:21:50.900Z,80.69
2023-05-14T10:22:50.898Z,81.14
2023-05-14T10:23:50.881Z,81.88
2023-05-14T10:24:50.897Z,82.46
2023-05-14T10:25:50.881Z,82.67
2023-05-14T10:26:50.860Z,83.05
2023-05-14T10:27:50.824Z,83.23
2023-05-14T10:28:50.831Z,83.23
2023-05-14T10:29:50.793Z,83.56
2023-05-14T10:30:50.829Z,83.56
2023-05-14T10:31:50.799Z,83.55
2023-05-14T10:32:50.785Z,83.73
2023-05-14T10:33:50.783Z,83.57
2023-05-14T10:34:50.721Z,83.40
2023-05-14T10:35:50.756Z,83.54
2023-05-14T10:36:50.701Z,83.58
2023-05-14T10:37:50.718Z,83.46
2023-05-14T10:38:50.711Z,83.13
2023-05-14T10:39:50.686Z,82.93
2023-05-14T10:40:53.566Z,83.04
2023-05-14T10:41:50.651Z,82.94
2023-05-14T10:42:50.628Z,83.01
2023-05-14T10:43:50.610Z,82.93
2023-05-14T10:44:50.602Z,82.83
2023-05-14T10:45:50.582Z,82.70
2023-05-14T10:46:50.610Z,82.71
2023-05-14T10:47:50.612Z,82.52
2023-05-14T10:48:50.560Z,82.59
2023-05-14T10:49:50.522Z,82.63
2023-05-14T10:50:50.537Z,82.61
2023-05-14T10:51:50.491Z,82.20
2023-05-14T10:52:50.490Z,81.83
2023-05-14T10:53:50.478Z,82.03
2023-05-14T10:54:50.472Z,82.16
2023-05-14T10:55:50.450Z,81.69
2023-05-14T10:56:50.424Z,81.28
2023-05-14T10:57:50.421Z,81.51
2023-05-14T10:58:50.410Z,81.63
2023-05-14T10:59:50.429Z,81.79
2023-05-14T11:00:50.401Z,81.74
2023-05-14T11:01:50.406Z,81.18
2023-05-14T11:02:50.432Z,81.55
2023-05-14T11:03:50.359Z,81.71
2023-05-14T11:04:50.328Z,81.61
2023-05-14T11:05:50.339Z,81.47
2023-05-14T11:06:50.335Z,81.48
2023-05-14T11:07:50.298Z,81.51
2023-05-14T11:08:50.301Z,81.56
2023-05-14T11:09:50.261Z,81.67
2023-05-14T11:10:50.262Z,81.57
2023-05-14T11:11:50.247Z,81.63
2023-05-14T11:12:50.218Z,81.65
2023-05-14T11:13:50.238Z,81.63
2023-05-14T11:14:50.218Z,81.30
2023-05-14T11:15:50.196Z,81.18
2023-05-14T11:16:50.294Z,81.22
2023-05-14T11:17:50.180Z,81.12
2023-05-14T11:18:50.191Z,81.20
2023-05-14T11:19:51.246Z,81.18
2023-05-14T11:20:50.150Z,81.06
2023-05-14T11:21:50.179Z,81.08
2023-05-14T11:22:50.108Z,80.97
2023-05-14T11:23:50.090Z,80.84
2023-05-14T11:24:50.067Z,80.63
2023-05-14T11:25:50.143Z,80.72
2023-05-14T11:26:50.078Z,80.36
2023-05-14T11:27:50.057Z,80.30
2023-05-14T11:28:50.005Z,80.05
2023-05-14T11:29:50.005Z,79.95
2023-05-14T11:30:49.980Z,79.83
2023-05-14T11:31:50.128Z,79.87
2023-05-14T11:32:50.115Z,79.92
2023-05-14T11:33:49.939Z,80.09
2023-05-14T11:34:49.935Z,80.03
2023-05-14T11:35:49.925Z,79.77
2023-05-14T11:36:49.905Z,79.80
2023-05-14T11:37:49.881Z,79.67
2023-05-14T11:38:49.904Z,79.31
2023-05-14T11:39:49.875Z,79.50
2023-05-14T11:40:49.861Z,79.70
2023-05-14T11:41:49.849Z,79.75
2023-05-14T11:42:49.834Z,79.84
2023-05-14T11:43:49.843Z,79.93
2023-05-14T11:44:49.795Z,79.62
2023-05-14T11:45:49.783Z,79.30
2023-05-14T11:46:49.779Z,79.05
2023-05-14T11:47:49.773Z,79.00
2023-05-14T11:48:49.727Z,78.98
2023-05-14T11:49:49.771Z,78.85
2023-05-14T11:50:49.719Z,78.89
2023-05-14T11:51:49.706Z,78.62
2023-05-14T11:52:49.716Z,78.59
2023-05-14T11:53:49.661Z,78.42
2023-05-14T11:54:49.675Z,78.41
2023-05-14T11:55:49.643Z,78.64
2023-05-14T11:56:49.647Z,78.35
2023-05-14T11:57:49.609Z,78.17
2023-05-14T11:58:49.595Z,77.83
2023-05-14T11:59:49.561Z,78.23
2023-05-14T12:00:49.560Z,78.21
2023-05-14T12:01:50.693Z,78.38
2023-05-14T12:02:49.654Z,77.86
2023-05-14T12:03:49.701Z,77.55
2023-05-14T12:04:49.649Z,77.67
2023-05-14T12:05:49.505Z,76.86
2023-05-14T12:06:49.479Z,75.53
2023-05-14T12:07:49.487Z,75.72
2023-05-14T12:08:49.479Z,76.46
2023-05-14T12:09:49.668Z,76.58
2023-05-14T12:10:49.427Z,76.25
2023-05-14T12:11:49.481Z,75.52
2023-05-14T12:12:49.473Z,75.27
2023-05-14T12:13:49.470Z,74.86
2023-05-14T12:14:49.404Z,74.71
2023-05-14T12:15:49.400Z,74.74
2023-05-14T12:16:49.366Z,74.57
2023-05-14T12:17:49.455Z,73.99
2023-05-14T12:18:49.518Z,74.18
2023-05-14T12:19:49.337Z,73.89
2023-05-14T12:20:49.304Z,73.57
2023-05-14T12:21:49.289Z,73.84
2023-05-14T12:22:49.315Z,73.35
2023-05-14T12:23:49.256Z,73.41
2023-05-14T12:24:49.326Z,73.94
2023-05-14T12:25:49.226Z,73.28
2023-05-14T12:26:49.230Z,73.75
2023-05-14T12:27:49.247Z,74.76
2023-05-14T12:28:49.212Z,74.89
2023-05-14T12:29:49.213Z,75.15
2023-05-14T12:30:49.192Z,74.71
2023-05-14T12:31:49.360Z,74.59
2023-05-14T12:32:49.233Z,74.58
2023-05-14T12:33:49.140Z,73.48
2023-05-14T12:34:49.111Z,73.11
2023-05-14T12:35:49.105Z,72.66
2023-05-14T12:36:49.088Z,73.06
2023-05-14T12:37:49.081Z,72.83
2023-05-14T12:38:49.074Z,71.92
2023-05-14T12:39:49.069Z,71.27
2023-05-14T12:40:49.047Z,71.85
2023-05-14T12:41:49.023Z,72.08
2023-05-14T12:42:49.109Z,71.81
2023-05-14T12:43:49.046Z,71.87
2023-05-14T12:44:49.002Z,71.51
2023-05-14T12:45:48.964Z,71.71
2023-05-14T12:46:49.026Z,71.30
2023-05-14T12:47:48.972Z,70.58
2023-05-14T12:48:50.118Z,70.81
2023-05-14T12:49:48.924Z,71.41
2023-05-14T12:50:48.908Z,71.59
2023-05-14T12:51:51.195Z,71.00
2023-05-14T12:52:48.881Z,71.46
2023-05-14T12:53:48.878Z,70.80